Little, Kentucky
Current Conditions -  °F | °C
As of 12:53 AM on Tuesday 27 Jan 2015 (Local Time) from KJKL Reporting Station
Overcast Overcast  
Wind Chill: 26°   Ceiling: 2300
Heat Index: 26°   Visibility: 10mi
Dew Point: 22°   Wind: 0mph
Humidity: 84%   Direction: NA
Pressure: 29.89"   Gusts: NA
Location:  37.532°N, 83.3068°W
Report Text: KJKL 270553Z AUTO 00000KT 10SM OVC023 M03/M06 A2989 RMK AO2 SLP136 T10331056 11028 21033 58009
Loading
Personal Weather Stations






























Interactive Weather Map New forecast layout! Learn more

10-Day Weather Forecast

Advertisements
Track Severe Weather on mobile